Map

Track Data

SID SEASON NUMBER BASIN SUBBASIN NAME ISO_TIME NATURE LAT LON WMO_WIND WMO_PRES WMO_AGENCY TRACK_TYPE DIST2LAND LANDFALL IFLAG USA_AGENCY USA_ATCF_ID USA_LAT USA_LON USA_RECORD USA_STATUS USA_WIND USA_PRES USA_SSHS USA_R34_NE USA_R34_SE USA_R34_SW USA_R34_NW USA_R50_NE USA_R50_SE USA_R50_SW USA_R50_NW USA_R64_NE USA_R64_SE USA_R64_SW USA_R64_NW USA_POCI USA_ROCI USA_RMW USA_EYE TOKYO_LAT TOKYO_LON TOKYO_GRADE TOKYO_WIND TOKYO_PRES TOKYO_R50_DIR TOKYO_R50_LONG TOKYO_R50_SHORT TOKYO_R30_DIR TOKYO_R30_LONG TOKYO_R30_SHORT TOKYO_LAND CMA_LAT CMA_LON CMA_CAT CMA_WIND CMA_PRES HKO_LAT HKO_LON HKO_CAT HKO_WIND HKO_PRES NEWDELHI_LAT NEWDELHI_LON NEWDELHI_GRADE NEWDELHI_WIND NEWDELHI_PRES NEWDELHI_CI NEWDELHI_DP NEWDELHI_POCI REUNION_LAT REUNION_LON REUNION_TYPE REUNION_WIND REUNION_PRES REUNION_TNUM REUNION_CI REUNION_RMW REUNION_R34_NE REUNION_R34_SE REUNION_R34_SW REUNION_R34_NW REUNION_R50_NE REUNION_R50_SE REUNION_R50_SW REUNION_R50_NW REUNION_R64_NE REUNION_R64_SE REUNION_R64_SW REUNION_R64_NW BOM_LAT BOM_LON BOM_TYPE BOM_WIND BOM_PRES BOM_TNUM BOM_CI BOM_RMW BOM_R34_NE BOM_R34_SE BOM_R34_SW BOM_R34_NW BOM_R50_NE BOM_R50_SE BOM_R50_SW BOM_R50_NW BOM_R64_NE BOM_R64_SE BOM_R64_SW BOM_R64_NW BOM_ROCI BOM_POCI BOM_EYE BOM_POS_METHOD BOM_PRES_METHOD NADI_LAT NADI_LON NADI_CAT NADI_WIND NADI_PRES WELLINGTON_LAT WELLINGTON_LON WELLINGTON_WIND WELLINGTON_PRES DS824_LAT DS824_LON DS824_STAGE DS824_WIND DS824_PRES TD9636_LAT TD9636_LON TD9636_STAGE TD9636_WIND TD9636_PRES TD9635_LAT TD9635_LON TD9635_WIND TD9635_PRES TD9635_ROCI NEUMANN_LAT NEUMANN_LON NEUMANN_CLASS NEUMANN_WIND NEUMANN_PRES MLC_LAT MLC_LON MLC_CLASS MLC_WIND MLC_PRES USA_GUST BOM_GUST BOM_GUST_PER REUNION_GUST REUNION_GUST_PER USA_SEAHGT USA_SEARAD_NE USA_SEARAD_SE USA_SEARAD_SW USA_SEARAD_NW STORM_SPEED STORM_DIR
1912242N18147 1912 40 WP MM NOT_NAMED 1912-08-28 16:00:00 NR 18.2000 146.800 main 1985 1961 __________O___ -1 18.2000 146.800 7 13 290
1912242N18147 1912 40 WP MM NOT_NAMED 1912-08-28 18:00:00 NR 18.3492 146.360 main 1961 1908 __________P___ -1 18.3492 146.360 7 13 290
1912242N18147 1912 40 WP MM NOT_NAMED 1912-08-28 21:00:00 NR 18.5847 145.708 main 1908 1858 __________P___ -1 18.5847 145.708 7 13 293
1912242N18147 1912 40 WP MM NOT_NAMED 1912-08-29 00:00:00 NR 18.8533 145.079 main 1858 1805 __________P___ -1 18.8533 145.079 7 13 297
1912242N18147 1912 40 WP MM NOT_NAMED 1912-08-29 03:00:00 NR 19.1764 144.487 main 1805 1785 __________P___ -1 19.1764 144.487 7 13 301
1912242N18147 1912 40 WP MM NOT_NAMED 1912-08-29 04:00:00 NR 19.3000 144.300 main 1785 1737 __________O___ -1 19.3000 144.300 3 13 308
1912242N18147 1912 40 WP MM NOT_NAMED 1912-08-29 06:00:00 NR 19.5741 143.945 main 1737 1678 __________P___ -1 19.5741 143.945 3 13 313
1912242N18147 1912 40 WP MM NOT_NAMED 1912-08-29 09:00:00 NR 20.0485 143.462 main 1678 1595 __________P___ -1 20.0485 143.462 3 13 320
1912242N18147 1912 40 WP MM NOT_NAMED 1912-08-29 12:00:00 NR 20.5901 143.045 main 1595 1522 __________P___ -1 20.5901 143.045 3 14 328
1912242N18147 1912 40 WP MM NOT_NAMED 1912-08-29 15:00:00 NR 21.1892 142.698 main 1522 1497 __________P___ -1 21.1892 142.698 3 14 333
1912242N18147 1912 40 WP MM NOT_NAMED 1912-08-29 16:00:00 NR 21.4000 142.600 main 1497 1437 __________O___ -1 21.4000 142.600 4 15 338
1912242N18147 1912 40 WP MM NOT_NAMED 1912-08-29 18:00:00 NR 21.8630 142.403 main 1437 1358 __________P___ -1 21.8630 142.403 4 15 342
1912242N18147 1912 40 WP MM NOT_NAMED 1912-08-29 21:00:00 NR 22.6028 142.169 main 1358 1279 __________P___ -1 22.6028 142.169 4 15 346
1912242N18147 1912 40 WP MM NOT_NAMED 1912-08-30 00:00:00 NR 23.3388 142.008 main 1279 1205 __________P___ -1 23.3388 142.008 4 14 350
1912242N18147 1912 40 WP MM NOT_NAMED 1912-08-30 03:00:00 NR 24.0049 141.916 main 1205 1185 __________P___ -1 24.0049 141.916 4 13 353
1912242N18147 1912 40 WP MM NOT_NAMED 1912-08-30 04:00:00 NR 24.2000 141.900 main 1185 1156 __________O___ -1 24.2000 141.900 4 10 355
1912242N18147 1912 40 WP MM NOT_NAMED 1912-08-30 06:00:00 NR 24.5078 141.881 main 1156 1117 __________P___ -1 24.5078 141.881 4 8 2
1912242N18147 1912 40 WP MM NOT_NAMED 1912-08-30 09:00:00 NR 24.8814 141.910 main 1117 1093 __________P___ -1 24.8814 141.910 4 7 8
1912242N18147 1912 40 WP MM NOT_NAMED 1912-08-30 12:00:00 NR 25.1934 141.983 main 1093 1063 __________P___ -1 25.1934 141.983 4 6 14
1912242N18147 1912 40 WP MM NOT_NAMED 1912-08-30 15:00:00 NR 25.4938 142.072 main 1063 1052 __________P___ -1 25.4938 142.072 4 6 15
1912242N18147 1912 40 WP MM NOT_NAMED 1912-08-30 16:00:00 NR 25.6000 142.100 main 1052 1031 __________O___ -1 25.6000 142.100 4 7 12
1912242N18147 1912 40 WP MM NOT_NAMED 1912-08-30 18:00:00 NR 25.8294 142.149 main 1031 992 __________P___ -1 25.8294 142.149 4 7 9
1912242N18147 1912 40 WP MM NOT_NAMED 1912-08-30 21:00:00 NR 26.2103 142.207 main 992 949 __________P___ -1 26.2103 142.207 4 8 7
1912242N18147 1912 40 WP MM NOT_NAMED 1912-08-31 00:00:00 NR 26.6233 142.251 main 953 899 __________P___ -1 26.6233 142.251 4 9 4
1912242N18147 1912 40 WP MM NOT_NAMED 1912-08-31 03:00:00 NR 27.0546 142.288 main 899 888 __________P___ -1 27.0546 142.288 4 9 3
1912242N18147 1912 40 WP MM NOT_NAMED 1912-08-31 04:00:00 NR 27.2000 142.300 main 888 __________O___ -1 27.2000 142.300 4 9 11

Digital Typhoon Data and Search

About IBTrACS Database

This database is a web-friendly format of International Best Track Archive for Climate Stewardship (IBTrACS), a global best track data archive curated by NOAA dating back to 1842.

Updated: 2021-12-08